createdAt,value
2016-11-26T00:00:50.167Z,0
2016-11-26T00:02:00.845Z,0
2016-11-26T00:03:10.933Z,0
2016-11-26T00:04:20.964Z,0
2016-11-26T00:05:31.020Z,0
2016-11-26T00:06:41.137Z,0
2016-11-26T00:07:51.479Z,0
2016-11-26T00:09:01.812Z,0
2016-11-26T00:10:12.146Z,0
2016-11-26T00:11:22.146Z,0
2016-11-26T00:12:32.488Z,0
2016-11-26T00:13:42.197Z,0
2016-11-26T00:14:52.220Z,0
2016-11-26T00:16:02.233Z,0
2016-11-26T00:17:12.942Z,0
2016-11-26T00:18:23.009Z,0
2016-11-26T00:19:33.022Z,0
2016-11-26T00:20:43.397Z,0
2016-11-26T00:21:53.751Z,0
2016-11-26T00:23:03.789Z,0
2016-11-26T00:24:13.856Z,0
2016-11-26T00:25:24.191Z,0
2016-11-26T00:26:34.526Z,0
2016-11-26T00:27:44.875Z,0
2016-11-26T00:28:55.196Z,0
2016-11-26T00:30:05.532Z,0
2016-11-26T00:31:15.555Z,0
2016-11-26T00:32:25.897Z,0
2016-11-26T00:33:35.917Z,0
2016-11-26T00:34:46.238Z,0
2016-11-26T00:35:56.272Z,0
2016-11-26T00:37:06.596Z,0
2016-11-26T00:38:16.628Z,0
2016-11-26T00:39:26.962Z,0
2016-11-26T00:40:37.306Z,0
2016-11-26T00:41:47.335Z,0
2016-11-26T00:42:57.685Z,0
2016-11-26T00:44:07.706Z,0
2016-11-26T00:45:17.728Z,0
2016-11-26T00:46:28.080Z,0
2016-11-26T00:47:38.416Z,0
2016-11-26T00:48:48.117Z,0
2016-11-26T00:49:58.445Z,0
2016-11-26T00:51:08.781Z,0
2016-11-26T00:52:18.802Z,0
2016-11-26T00:53:28.506Z,0
2016-11-26T00:54:38.836Z,0
2016-11-26T00:55:48.949Z,0
2016-11-26T00:56:58.983Z,0
2016-11-26T00:58:09.311Z,0
2016-11-26T00:59:19.688Z,0
2016-11-26T01:00:29.399Z,0
2016-11-26T01:01:39.104Z,0
2016-11-26T01:02:49.128Z,0
2016-11-26T01:03:59.479Z,0
2016-11-26T01:05:09.171Z,0
2016-11-26T01:06:18.892Z,0
2016-11-26T01:07:28.937Z,0
2016-11-26T01:08:39.269Z,0
2016-11-26T01:09:49.289Z,0
2016-11-26T01:10:59.005Z,0
2016-11-26T01:12:09.328Z,0
2016-11-26T01:13:19.393Z,0
2016-11-26T01:14:29.433Z,0
2016-11-26T01:15:39.456Z,0
2016-11-26T01:16:49.484Z,0
2016-11-26T01:17:59.191Z,0
2016-11-26T01:19:09.550Z,0
2016-11-26T01:20:19.563Z,0
2016-11-26T01:21:29.582Z,0
2016-11-26T01:22:39.607Z,0
2016-11-26T01:23:49.619Z,0
2016-11-26T01:24:59.640Z,0
2016-11-26T01:26:09.669Z,0
2016-11-26T01:27:19.690Z,0
2016-11-26T01:28:29.450Z,0
2016-11-26T01:29:39.458Z,0
2016-11-26T01:30:49.473Z,0
2016-11-26T01:31:59.498Z,0
2016-11-26T01:33:09.825Z,0
2016-11-26T01:34:19.852Z,0
2016-11-26T01:35:30.180Z,0
2016-11-26T01:36:40.198Z,0
2016-11-26T01:37:49.584Z,0
2016-11-26T01:38:59.596Z,0
2016-11-26T01:40:09.642Z,0
2016-11-26T01:41:19.649Z,0
2016-11-26T01:42:29.726Z,0
2016-11-26T01:43:39.747Z,0
2016-11-26T01:44:49.126Z,0
2016-11-26T01:45:59.146Z,0
2016-11-26T01:47:09.523Z,0
2016-11-26T01:48:19.544Z,0
2016-11-26T01:49:29.552Z,0
2016-11-26T01:50:39.568Z,0
2016-11-26T01:51:49.579Z,0
2016-11-26T01:52:59.606Z,0
2016-11-26T01:54:09.627Z,0
2016-11-26T01:55:19.955Z,0
2016-11-26T01:56:30.296Z,0
2016-11-26T01:57:40.639Z,0
2016-11-26T01:58:50.049Z,0
2016-11-26T02:00:00.380Z,0
2016-11-26T02:01:10.739Z,0
2016-11-26T02:02:20.765Z,0
2016-11-26T02:03:30.792Z,0
2016-11-26T02:04:40.507Z,0
2016-11-26T02:05:50.843Z,0
2016-11-26T02:07:01.171Z,0
2016-11-26T02:08:11.547Z,0
2016-11-26T02:09:21.564Z,0
2016-11-26T02:10:31.582Z,0
2016-11-26T02:11:41.593Z,0
2016-11-26T02:12:51.619Z,0
2016-11-26T02:14:01.362Z,0
2016-11-26T02:15:11.695Z,0
2016-11-26T02:16:22.025Z,0
2016-11-26T02:17:32.056Z,0
2016-11-26T02:18:42.103Z,0
2016-11-26T02:19:52.430Z,0
2016-11-26T02:21:02.449Z,0
2016-11-26T02:22:12.452Z,0
2016-11-26T02:23:22.780Z,0
2016-11-26T02:24:32.482Z,0
2016-11-26T02:25:43.065Z,0
2016-11-26T02:26:53.070Z,0
2016-11-26T02:28:02.771Z,0
2016-11-26T02:29:13.106Z,0
2016-11-26T02:30:23.110Z,0
2016-11-26T02:31:33.137Z,0
2016-11-26T02:32:43.484Z,0
2016-11-26T02:33:53.516Z,0
2016-11-26T02:35:03.512Z,0
2016-11-26T02:36:13.534Z,0
2016-11-26T02:37:23.555Z,0
2016-11-26T02:38:33.267Z,0
2016-11-26T02:39:43.590Z,0
2016-11-26T02:40:53.920Z,0
2016-11-26T02:42:04.279Z,0
2016-11-26T02:43:14.296Z,0
2016-11-26T02:44:24.312Z,0
2016-11-26T02:45:34.348Z,0
2016-11-26T02:46:44.387Z,0
2016-11-26T02:47:54.720Z,0
2016-11-26T02:49:04.747Z,0
2016-11-26T02:50:15.075Z,0
2016-11-26T02:51:25.396Z,0
2016-11-26T02:52:35.406Z,0
2016-11-26T02:53:45.409Z,0
2016-11-26T02:54:55.737Z,0
2016-11-26T02:56:06.074Z,0
2016-11-26T02:57:16.404Z,0
2016-11-26T02:58:26.779Z,0
2016-11-26T02:59:36.818Z,0
2016-11-26T03:00:46.528Z,0
2016-11-26T03:32:38.015Z,0
2016-11-26T03:33:48.358Z,0
2016-11-26T03:34:58.680Z,0
2016-11-26T03:36:08.695Z,0
2016-11-26T03:37:19.017Z,0
2016-11-26T03:38:29.339Z,0
2016-11-26T03:39:39.651Z,0
2016-11-26T03:40:49.977Z,0
2016-11-26T03:42:00.300Z,0
2016-11-26T03:43:10.621Z,0
2016-11-26T03:44:20.951Z,0
2016-11-26T03:45:31.278Z,0
2016-11-26T03:46:41.601Z,0
2016-11-26T03:47:51.623Z,0
2016-11-26T03:49:01.970Z,0
2016-11-26T03:50:11.982Z,0
2016-11-26T03:51:21.998Z,0
2016-11-26T03:52:32.009Z,0
2016-11-26T03:53:41.715Z,0
2016-11-26T03:54:52.044Z,0
2016-11-26T03:56:01.433Z,0
2016-11-26T03:57:11.171Z,0
2016-11-26T03:58:21.209Z,0
2016-11-26T03:59:31.227Z,0
2016-11-26T04:00:41.247Z,0
2016-11-26T04:01:51.588Z,0
2016-11-26T04:03:01.915Z,0
2016-11-26T04:04:11.324Z,0
2016-11-26T04:05:21.659Z,0
2016-11-26T04:06:31.691Z,0
2016-11-26T04:07:42.021Z,0
2016-11-26T04:08:52.368Z,0
2016-11-26T04:10:02.380Z,0
2016-11-26T04:11:12.710Z,0
2016-11-26T04:12:22.723Z,0
2016-11-26T04:13:32.435Z,0
2016-11-26T04:14:42.786Z,0
2016-11-26T04:15:53.122Z,0
2016-11-26T04:17:02.833Z,0
2016-11-26T04:18:13.164Z,0
2016-11-26T04:19:23.499Z,0
2016-11-26T04:20:33.190Z,0
2016-11-26T04:21:42.892Z,0
2016-11-26T04:22:53.261Z,0
2016-11-26T04:24:03.596Z,0
2016-11-26T04:25:13.922Z,0
2016-11-26T04:26:24.249Z,0
2016-11-26T04:27:34.576Z,0
2016-11-26T04:28:44.969Z,0
2016-11-26T04:29:55.304Z,0
2016-11-26T04:31:05.316Z,0
2016-11-26T04:32:15.018Z,0
2016-11-26T04:33:25.359Z,0
2016-11-26T04:34:35.690Z,0
2016-11-26T04:35:45.401Z,0
2016-11-26T04:36:55.104Z,0
2016-11-26T04:38:05.122Z,0
2016-11-26T04:39:15.135Z,0
2016-11-26T04:40:25.484Z,0
2016-11-26T04:41:35.826Z,0
2016-11-26T04:42:46.118Z,0
2016-11-26T04:43:56.135Z,0
2016-11-26T04:45:06.148Z,0
2016-11-26T04:46:16.533Z,0
2016-11-26T04:47:26.861Z,0
2016-11-26T04:48:36.877Z,0
2016-11-26T04:49:46.892Z,0
2016-11-26T04:50:56.627Z,0
2016-11-26T04:52:06.012Z,0
2016-11-26T04:53:16.039Z,0
2016-11-26T04:54:26.361Z,0
2016-11-26T04:55:36.407Z,0
2016-11-26T04:56:46.424Z,0
2016-11-26T04:57:56.764Z,0
2016-11-26T04:59:06.807Z,0
2016-11-26T05:00:17.131Z,0
2016-11-26T05:01:27.449Z,0
2016-11-26T05:02:37.464Z,0
2016-11-26T05:03:47.171Z,0
2016-11-26T05:04:57.502Z,0
2016-11-26T05:06:07.846Z,0
2016-11-26T05:07:18.170Z,0
2016-11-26T05:08:28.496Z,0
2016-11-26T05:09:38.828Z,0
2016-11-26T05:10:49.174Z,0
2016-11-26T05:11:58.881Z,0
2016-11-26T05:13:08.892Z,0
2016-11-26T05:14:19.220Z,0
2016-11-26T05:15:29.282Z,0
2016-11-26T05:16:39.604Z,0
2016-11-26T05:17:49.620Z,0
2016-11-26T05:18:59.628Z,0
2016-11-26T05:20:10.158Z,0
2016-11-26T05:21:20.174Z,0
2016-11-26T05:22:30.194Z,0
2016-11-26T05:23:40.522Z,0
2016-11-26T05:24:50.540Z,0
2016-11-26T05:26:00.869Z,0
2016-11-26T05:27:11.204Z,0
2016-11-26T05:28:21.533Z,0
2016-11-26T05:29:31.857Z,0
2016-11-26T05:30:41.249Z,0
2016-11-26T05:31:51.571Z,0
2016-11-26T05:33:01.615Z,0
2016-11-26T05:34:11.980Z,0
2016-11-26T05:35:22.008Z,0
2016-11-26T05:36:32.338Z,0
2016-11-26T05:37:42.355Z,0
2016-11-26T05:38:52.363Z,0
2016-11-26T05:40:02.685Z,0
2016-11-26T05:41:12.396Z,0
2016-11-26T05:42:22.117Z,0
2016-11-26T05:43:32.130Z,0
2016-11-26T05:44:42.150Z,0
2016-11-26T05:45:52.160Z,0
2016-11-26T05:47:02.193Z,0
2016-11-26T05:48:11.894Z,0
2016-11-26T05:49:21.928Z,0
2016-11-26T05:50:32.250Z,0
2016-11-26T05:51:42.615Z,0
2016-11-26T05:52:52.937Z,0
2016-11-26T05:54:03.259Z,0
2016-11-26T05:55:13.595Z,0
2016-11-26T05:56:23.923Z,0
2016-11-26T05:57:34.259Z,0
2016-11-26T05:58:43.961Z,0
2016-11-26T05:59:54.281Z,0
2016-11-26T06:01:04.628Z,0
2016-11-26T06:02:14.637Z,0
2016-11-26T06:03:25.006Z,0
2016-11-26T06:04:34.704Z,0
2016-11-26T06:05:45.036Z,0
2016-11-26T06:06:55.059Z,0
2016-11-26T06:08:04.766Z,0
2016-11-26T06:09:15.106Z,0
2016-11-26T06:10:25.136Z,0
2016-11-26T06:11:34.834Z,0
2016-11-26T06:12:44.855Z,0
2016-11-26T06:13:55.175Z,0
2016-11-26T06:15:05.190Z,0
2016-11-26T06:16:15.541Z,0
2016-11-26T06:17:25.873Z,0
2016-11-26T06:18:35.889Z,0
2016-11-26T06:19:46.231Z,0
2016-11-26T06:20:56.562Z,5
2016-11-26T06:22:06.940Z,5
2016-11-26T06:23:16.961Z,5
2016-11-26T06:24:27.281Z,5
2016-11-26T06:25:36.988Z,5
2016-11-26T06:26:47.301Z,5
2016-11-26T06:27:57.615Z,5
2016-11-26T06:29:07.631Z,5
2016-11-26T06:30:17.707Z,10
2016-11-26T06:31:27.728Z,10
2016-11-26T06:32:37.781Z,10
2016-11-26T06:33:48.102Z,10
2016-11-26T06:34:58.119Z,10
2016-11-26T06:36:08.473Z,15
2016-11-26T06:37:18.475Z,15
2016-11-26T06:38:28.817Z,15
2016-11-26T06:39:38.839Z,15
2016-11-26T06:40:49.161Z,15
2016-11-26T06:41:59.205Z,20
2016-11-26T06:43:09.536Z,20
2016-11-26T06:44:19.885Z,20
2016-11-26T06:45:29.908Z,20
2016-11-26T06:46:39.945Z,20
2016-11-26T06:47:50.271Z,25
2016-11-26T06:49:00.282Z,25
2016-11-26T06:50:10.636Z,25
2016-11-26T06:51:20.665Z,25
2016-11-26T06:52:30.069Z,30
2016-11-26T06:53:40.098Z,30
2016-11-26T06:54:50.426Z,30
2016-11-26T06:56:00.762Z,30
2016-11-26T06:57:10.778Z,30
2016-11-26T06:58:21.117Z,35
2016-11-26T06:59:31.149Z,35
2016-11-26T07:00:41.175Z,35
2016-11-26T07:01:50.880Z,35
2016-11-26T07:03:01.227Z,40
2016-11-26T07:04:10.933Z,40
2016-11-26T07:05:21.265Z,40
2016-11-26T07:06:31.282Z,40
2016-11-26T07:07:41.609Z,45
2016-11-26T07:08:51.956Z,45
2016-11-26T07:10:02.298Z,45
2016-11-26T07:11:12.686Z,45
2016-11-26T07:12:23.021Z,45
2016-11-26T07:13:33.340Z,45
2016-11-26T07:14:43.044Z,45
2016-11-26T07:15:52.751Z,45
2016-11-26T07:17:02.459Z,50
2016-11-26T07:18:12.823Z,50
2016-11-26T07:19:23.151Z,50
2016-11-26T07:20:32.856Z,50
2016-11-26T07:21:42.874Z,50
2016-11-26T07:22:52.593Z,50
2016-11-26T07:24:02.618Z,50
2016-11-26T07:25:12.648Z,55
2016-11-26T07:26:22.675Z,55
2016-11-26T07:27:32.057Z,60
2016-11-26T07:28:42.389Z,60
2016-11-26T07:29:52.086Z,60
2016-11-26T07:31:02.410Z,60
2016-11-26T07:32:12.427Z,65
2016-11-26T07:33:22.781Z,65
2016-11-26T07:34:33.119Z,65
2016-11-26T07:35:43.146Z,65
2016-11-26T07:36:53.180Z,70
2016-11-26T07:38:03.563Z,70
2016-11-26T07:39:13.889Z,70
2016-11-26T07:40:23.902Z,70
2016-11-26T07:41:33.912Z,75
2016-11-26T07:42:43.619Z,75
2016-11-26T07:43:53.672Z,75
2016-11-26T07:45:03.992Z,75
2016-11-26T07:46:13.385Z,75
2016-11-26T07:47:23.741Z,80
2016-11-26T07:48:33.814Z,80
2016-11-26T07:49:43.858Z,80
2016-11-26T07:50:54.242Z,80
2016-11-26T07:52:04.603Z,80
2016-11-26T07:53:14.625Z,85
2016-11-26T07:54:24.959Z,85
2016-11-26T07:55:34.732Z,85
2016-11-26T07:56:44.430Z,90
2016-11-26T07:57:54.771Z,90
2016-11-26T07:59:04.793Z,90
2016-11-26T08:00:15.117Z,90
2016-11-26T08:01:25.143Z,90
2016-11-26T08:02:35.178Z,90
2016-11-26T08:03:44.899Z,90
2016-11-26T08:04:55.237Z,90
2016-11-26T08:06:05.267Z,95
2016-11-26T08:07:15.607Z,95
2016-11-26T08:08:25.950Z,95
2016-11-26T08:09:35.999Z,95
2016-11-26T08:10:46.342Z,95
2016-11-26T08:11:56.361Z,95
2016-11-26T08:13:06.382Z,100
2016-11-26T08:14:16.724Z,100
2016-11-26T08:15:26.751Z,100
2016-11-26T08:16:36.790Z,110
2016-11-26T08:17:46.814Z,105
2016-11-26T08:18:57.157Z,105
2016-11-26T08:20:07.508Z,105
2016-11-26T08:21:17.213Z,105
2016-11-26T08:22:27.227Z,105
2016-11-26T08:23:37.564Z,105
2016-11-26T08:24:47.565Z,105
2016-11-26T08:25:57.583Z,110
2016-11-26T08:27:07.901Z,110
2016-11-26T08:28:17.922Z,110
2016-11-26T08:29:27.948Z,110
2016-11-26T08:30:37.973Z,110
2016-11-26T08:31:47.982Z,110
2016-11-26T08:32:58.327Z,110
2016-11-26T08:34:08.359Z,120
2016-11-26T08:35:18.394Z,115
2016-11-26T08:36:28.119Z,115
2016-11-26T08:37:38.463Z,115
2016-11-26T08:38:48.810Z,115
2016-11-26T08:39:59.149Z,120
2016-11-26T08:41:09.474Z,115
2016-11-26T08:42:19.500Z,120
2016-11-26T08:43:29.511Z,120
2016-11-26T08:44:39.579Z,120
2016-11-26T08:45:49.913Z,120
2016-11-26T08:47:00.255Z,125
2016-11-26T08:48:10.290Z,125
2016-11-26T08:49:20.301Z,125
2016-11-26T08:50:30.633Z,120
2016-11-26T08:51:40.669Z,125
2016-11-26T08:52:50.696Z,125
2016-11-26T08:54:01.014Z,125
2016-11-26T08:55:11.040Z,125
2016-11-26T08:56:21.126Z,125
2016-11-26T08:57:31.449Z,145
2016-11-26T08:58:41.460Z,150
2016-11-26T08:59:51.495Z,145
2016-11-26T09:01:01.823Z,140
2016-11-26T09:02:11.860Z,140
2016-11-26T09:03:22.199Z,160
2016-11-26T09:04:32.238Z,170
2016-11-26T09:05:42.636Z,170
2016-11-26T09:06:52.670Z,180
2016-11-26T09:08:02.682Z,190
2016-11-26T09:09:12.719Z,175
2016-11-26T09:10:22.732Z,180
2016-11-26T09:11:33.069Z,175
2016-11-26T09:12:43.404Z,175
2016-11-26T09:13:53.751Z,145
2016-11-26T09:15:03.777Z,115
2016-11-26T09:16:14.119Z,150
2016-11-26T09:17:23.831Z,145
2016-11-26T09:18:33.861Z,160
2016-11-26T09:19:43.882Z,200
2016-11-26T09:20:54.241Z,140
2016-11-26T09:22:04.616Z,145
2016-11-26T09:23:14.649Z,145
2016-11-26T09:24:24.685Z,140
2016-11-26T09:25:34.708Z,145
2016-11-26T09:26:45.053Z,150
2016-11-26T09:27:55.377Z,150
2016-11-26T09:29:05.722Z,145
2016-11-26T09:30:16.069Z,150
2016-11-26T09:31:26.411Z,145
2016-11-26T09:32:36.457Z,140
2016-11-26T09:33:45.853Z,145
2016-11-26T09:34:55.882Z,155
2016-11-26T09:36:06.257Z,145
2016-11-26T09:37:16.274Z,145
2016-11-26T09:38:26.006Z,160
2016-11-26T09:39:36.018Z,155
2016-11-26T09:40:46.035Z,160
2016-11-26T09:41:55.750Z,160
2016-11-26T09:43:06.091Z,165
2016-11-26T09:44:16.113Z,165
2016-11-26T09:45:25.856Z,165
2016-11-26T09:46:35.876Z,170
2016-11-26T09:47:45.949Z,165
2016-11-26T09:48:55.677Z,160
2016-11-26T09:50:06.072Z,155
2016-11-26T09:51:16.413Z,160
2016-11-26T09:52:26.752Z,160
2016-11-26T09:53:37.112Z,155
2016-11-26T09:54:47.488Z,160
2016-11-26T09:55:57.880Z,155
2016-11-26T09:57:08.197Z,160
2016-11-26T09:58:18.267Z,165
2016-11-26T09:59:28.588Z,155
2016-11-26T10:00:38.618Z,160
2016-11-26T10:01:48.659Z,155
2016-11-26T10:02:59.026Z,140
2016-11-26T10:04:09.052Z,155
2016-11-26T10:05:19.384Z,155
2016-11-26T10:06:29.401Z,155
2016-11-26T10:07:39.738Z,135
2016-11-26T10:08:50.075Z,160
2016-11-26T10:10:00.101Z,165
2016-11-26T10:11:10.449Z,165
2016-11-26T10:12:20.781Z,165
2016-11-26T10:13:31.115Z,165
2016-11-26T10:14:41.448Z,165
2016-11-26T10:15:51.470Z,165
2016-11-26T10:17:01.501Z,165
2016-11-26T10:18:11.838Z,165
2016-11-26T10:19:22.158Z,165
2016-11-26T10:20:32.180Z,165
2016-11-26T10:21:41.899Z,165
2016-11-26T10:22:52.275Z,175
2016-11-26T10:24:02.007Z,170
2016-11-26T10:25:12.055Z,170
2016-11-26T10:26:22.383Z,170
2016-11-26T10:27:32.723Z,165
2016-11-26T10:28:43.050Z,170
2016-11-26T10:29:53.072Z,165
2016-11-26T10:31:03.415Z,170
2016-11-26T10:32:13.166Z,165
2016-11-26T10:33:23.222Z,165
2016-11-26T10:34:33.239Z,170
2016-11-26T10:35:43.581Z,170
2016-11-26T10:36:53.622Z,170
2016-11-26T10:38:03.683Z,170
2016-11-26T10:39:13.400Z,170
2016-11-26T10:40:23.758Z,175
2016-11-26T10:41:34.087Z,175
2016-11-26T10:42:44.416Z,175
2016-11-26T10:43:54.451Z,175
2016-11-26T10:45:04.794Z,175
2016-11-26T10:46:15.187Z,175
2016-11-26T10:47:25.532Z,175
2016-11-26T10:48:35.941Z,170
2016-11-26T10:49:46.297Z,170
2016-11-26T10:50:56.638Z,170
2016-11-26T10:52:06.984Z,170
2016-11-26T10:53:17.337Z,175
2016-11-26T10:54:27.727Z,170
2016-11-26T10:55:37.745Z,170
2016-11-26T10:56:47.481Z,170
2016-11-26T10:57:57.520Z,175
2016-11-26T10:59:07.246Z,170
2016-11-26T11:00:17.583Z,165
2016-11-26T11:01:27.648Z,170
2016-11-26T11:02:37.983Z,170
2016-11-26T11:03:48.004Z,170
2016-11-26T11:05:12.328Z,175
2016-11-26T11:06:22.661Z,175
2016-11-26T11:07:32.681Z,180
2016-11-26T11:08:42.723Z,175
2016-11-26T11:09:52.797Z,175
2016-11-26T11:11:03.151Z,180
2016-11-26T11:12:13.474Z,175
2016-11-26T11:13:23.525Z,175
2016-11-26T11:14:33.877Z,180
2016-11-26T11:15:43.901Z,175
2016-11-26T11:16:53.926Z,175
2016-11-26T11:18:03.953Z,170
2016-11-26T11:19:13.684Z,170
2016-11-26T11:20:24.041Z,175
2016-11-26T11:21:34.398Z,175
2016-11-26T11:22:44.424Z,165
2016-11-26T11:23:54.787Z,170
2016-11-26T11:25:04.487Z,175
2016-11-26T11:26:14.199Z,180
2016-11-26T11:27:24.220Z,175
2016-11-26T11:28:34.542Z,175
2016-11-26T11:29:44.568Z,170
2016-11-26T11:30:54.900Z,175
2016-11-26T11:32:04.933Z,175
2016-11-26T11:33:14.965Z,170
2016-11-26T11:34:25.321Z,170
2016-11-26T11:35:35.703Z,170
2016-11-26T11:36:46.038Z,170
2016-11-26T11:37:56.382Z,170
2016-11-26T11:39:06.097Z,170
2016-11-26T11:40:15.814Z,175
2016-11-26T11:41:26.160Z,170
2016-11-26T11:42:36.189Z,165
2016-11-26T11:43:46.565Z,175
2016-11-26T11:44:56.291Z,170
2016-11-26T11:46:06.632Z,170
2016-11-26T11:47:16.665Z,170
2016-11-26T11:48:26.400Z,170
2016-11-26T11:49:36.757Z,165
2016-11-26T11:50:46.791Z,170
2016-11-26T11:51:56.828Z,170
2016-11-26T11:53:06.872Z,170
2016-11-26T11:54:17.213Z,165
2016-11-26T11:55:27.596Z,160
2016-11-26T11:56:37.612Z,155
2016-11-26T11:57:47.369Z,160
2016-11-26T11:58:57.711Z,160
2016-11-26T12:00:07.742Z,160
2016-11-26T12:01:17.159Z,155
2016-11-26T12:02:27.207Z,155
2016-11-26T12:03:36.922Z,165
2016-11-26T12:04:47.004Z,165
2016-11-26T12:05:57.021Z,170
2016-11-26T12:07:07.367Z,170
2016-11-26T12:08:17.786Z,190
2016-11-26T12:09:28.120Z,195
2016-11-26T12:10:37.862Z,190
2016-11-26T12:11:48.201Z,205
2016-11-26T12:12:58.541Z,215
2016-11-26T12:14:08.591Z,255
2016-11-26T12:15:18.630Z,220
2016-11-26T12:16:28.676Z,170
2016-11-26T12:17:39.029Z,155
2016-11-26T12:18:49.392Z,155
2016-11-26T12:19:59.101Z,155
2016-11-26T12:21:09.154Z,160
2016-11-26T12:22:19.512Z,165
2016-11-26T12:23:29.871Z,200
2016-11-26T12:24:40.223Z,225
2016-11-26T12:25:49.937Z,225
2016-11-26T12:27:00.284Z,230
2016-11-26T12:28:10.313Z,230
2016-11-26T12:29:20.668Z,210
2016-11-26T12:30:30.697Z,185
2016-11-26T12:31:41.044Z,155
2016-11-26T12:32:51.629Z,145
2016-11-26T12:34:01.667Z,135
2016-11-26T12:35:11.702Z,145
2016-11-26T12:36:21.729Z,195
2016-11-26T12:37:32.083Z,225
2016-11-26T12:38:42.474Z,200
2016-11-26T12:39:52.850Z,205
2016-11-26T12:41:02.877Z,185
2016-11-26T12:42:13.231Z,190
2016-11-26T12:43:23.268Z,160
2016-11-26T12:44:33.319Z,135
2016-11-26T12:45:43.679Z,120
2016-11-26T12:46:53.403Z,125
2016-11-26T12:48:03.456Z,130
2016-11-26T12:49:13.521Z,130
2016-11-26T12:50:23.880Z,125
2016-11-26T12:51:33.918Z,120
2016-11-26T12:52:44.268Z,120
2016-11-26T12:53:54.304Z,110
2016-11-26T12:55:04.345Z,95
2016-11-26T12:56:14.695Z,110
2016-11-26T12:57:25.039Z,115
2016-11-26T12:58:35.371Z,110
2016-11-26T12:59:45.098Z,105
2016-11-26T13:00:55.433Z,105
2016-11-26T13:02:05.482Z,90
2016-11-26T13:03:15.817Z,90
2016-11-26T13:04:25.851Z,90
2016-11-26T13:05:35.867Z,100
2016-11-26T13:06:46.240Z,100
2016-11-26T13:07:56.252Z,95
2016-11-26T13:09:05.975Z,90
2016-11-26T13:10:16.305Z,95
2016-11-26T13:11:26.635Z,95
2016-11-26T13:12:36.668Z,100
2016-11-26T13:13:47.270Z,95
2016-11-26T13:14:56.985Z,100
2016-11-26T13:16:06.683Z,95
2016-11-26T13:17:16.710Z,95
2016-11-26T13:18:27.060Z,95
2016-11-26T13:19:36.778Z,95
2016-11-26T13:20:47.109Z,95
2016-11-26T13:21:57.159Z,95
2016-11-26T13:23:07.540Z,95
2016-11-26T13:24:17.875Z,95
2016-11-26T13:25:28.212Z,90
2016-11-26T13:26:38.248Z,90
2016-11-26T13:27:48.291Z,90
2016-11-26T13:28:58.033Z,90
2016-11-26T13:30:08.084Z,90
2016-11-26T13:31:18.121Z,90
2016-11-26T13:32:28.516Z,85
2016-11-26T13:33:38.877Z,85
2016-11-26T13:34:49.244Z,85
2016-11-26T13:35:59.263Z,80
2016-11-26T13:37:09.315Z,80
2016-11-26T13:38:19.366Z,80
2016-11-26T13:39:29.415Z,80
2016-11-26T13:40:39.770Z,80
2016-11-26T13:41:49.813Z,75
2016-11-26T13:43:00.167Z,75
2016-11-26T13:44:10.518Z,75
2016-11-26T13:45:20.536Z,75
2016-11-26T13:46:30.909Z,75
2016-11-26T13:47:41.249Z,70
2016-11-26T13:48:51.272Z,70
2016-11-26T13:50:01.009Z,70
2016-11-26T13:51:11.363Z,70
2016-11-26T13:52:21.712Z,65
2016-11-26T13:53:31.433Z,65
2016-11-26T13:54:41.771Z,65
2016-11-26T13:55:52.112Z,65
2016-11-26T13:57:02.123Z,60
2016-11-26T13:58:12.140Z,60
2016-11-26T13:59:22.167Z,60
2016-11-26T14:00:32.514Z,55
2016-11-26T14:01:42.872Z,55
2016-11-26T14:02:52.896Z,50
2016-11-26T14:04:03.228Z,50
2016-11-26T14:05:12.956Z,50
2016-11-26T14:06:22.726Z,50
2016-11-26T14:07:33.073Z,50
2016-11-26T14:08:43.394Z,50
2016-11-26T14:09:53.422Z,50
2016-11-26T14:11:03.449Z,45
2016-11-26T14:12:13.146Z,45
2016-11-26T14:13:23.168Z,45
2016-11-26T14:14:33.182Z,40
2016-11-26T14:15:42.272Z,40
2016-11-26T14:16:52.633Z,35
2016-11-26T14:18:02.965Z,35
2016-11-26T14:19:13.296Z,35
2016-11-26T14:20:22.712Z,35
2016-11-26T14:21:32.733Z,30
2016-11-26T14:22:43.076Z,30
2016-11-26T14:23:53.441Z,30
2016-11-26T14:25:03.781Z,25
2016-11-26T14:26:14.106Z,25
2016-11-26T14:27:24.439Z,25
2016-11-26T14:28:34.775Z,25
2016-11-26T14:29:44.811Z,25
2016-11-26T14:30:55.143Z,20
2016-11-26T14:32:05.470Z,20
2016-11-26T14:33:15.822Z,20
2016-11-26T14:34:26.155Z,20
2016-11-26T14:35:36.175Z,15
2016-11-26T14:36:45.872Z,15
2016-11-26T14:37:55.913Z,15
2016-11-26T14:39:05.936Z,15
2016-11-26T14:40:15.952Z,15
2016-11-26T14:41:25.982Z,15
2016-11-26T14:42:36.324Z,10
2016-11-26T14:43:46.357Z,10
2016-11-26T14:44:56.390Z,10
2016-11-26T14:46:05.794Z,10
2016-11-26T14:47:16.122Z,10
2016-11-26T14:48:26.443Z,10
2016-11-26T14:49:36.460Z,10
2016-11-26T14:50:46.809Z,10
2016-11-26T14:51:57.155Z,5
2016-11-26T14:53:07.190Z,5
2016-11-26T14:54:17.527Z,5
2016-11-26T14:55:27.539Z,5
2016-11-26T14:56:37.877Z,5
2016-11-26T14:57:47.601Z,5
2016-11-26T14:58:57.938Z,5
2016-11-26T15:00:07.966Z,5
2016-11-26T15:01:17.683Z,5
2016-11-26T15:02:27.699Z,0
2016-11-26T15:03:37.426Z,0
2016-11-26T15:04:47.773Z,0
2016-11-26T15:05:57.796Z,0
2016-11-26T15:07:07.822Z,0
2016-11-26T15:08:18.182Z,0
2016-11-26T15:09:27.924Z,0
2016-11-26T15:10:37.631Z,0
2016-11-26T15:11:47.673Z,0
2016-11-26T15:12:57.994Z,0
2016-11-26T15:14:08.326Z,0
2016-11-26T15:15:18.368Z,0
2016-11-26T15:16:28.388Z,0
2016-11-26T15:17:38.741Z,0
2016-11-26T15:18:48.753Z,0
2016-11-26T15:19:58.799Z,0
2016-11-26T15:21:09.136Z,0
2016-11-26T15:22:19.163Z,0
2016-11-26T15:23:29.485Z,0
2016-11-26T15:24:39.835Z,0
2016-11-26T15:25:50.167Z,0
2016-11-26T15:26:59.885Z,0
2016-11-26T15:28:10.221Z,0
2016-11-26T15:29:20.257Z,0
2016-11-26T15:30:29.978Z,0
2016-11-26T15:31:40.319Z,0
2016-11-26T15:32:50.353Z,0
2016-11-26T15:34:00.403Z,0
2016-11-26T15:35:10.459Z,0
2016-11-26T15:36:20.842Z,0
2016-11-26T15:37:30.873Z,0
2016-11-26T15:38:40.601Z,0
2016-11-26T15:39:50.955Z,0
2016-11-26T15:41:00.969Z,0
2016-11-26T15:42:11.329Z,0
2016-11-26T15:43:21.044Z,0
2016-11-26T15:44:31.405Z,0
2016-11-26T15:45:41.437Z,0
2016-11-26T15:46:51.671Z,0
2016-11-26T15:48:01.373Z,0
2016-11-26T15:49:11.408Z,0
2016-11-26T15:50:21.451Z,0
2016-11-26T15:51:31.495Z,0
2016-11-26T15:52:41.519Z,0
2016-11-26T15:53:51.541Z,0
2016-11-26T15:55:01.908Z,0
2016-11-26T15:56:11.945Z,0
2016-11-26T15:57:21.691Z,0
2016-11-26T15:58:31.728Z,0
2016-11-26T15:59:41.757Z,0
2016-11-26T16:00:52.084Z,0
2016-11-26T16:02:02.424Z,0
2016-11-26T16:03:12.761Z,0
2016-11-26T16:04:23.092Z,0
2016-11-26T16:05:33.128Z,0
2016-11-26T16:06:43.161Z,0
2016-11-26T16:07:53.502Z,0
2016-11-26T16:09:03.538Z,0
2016-11-26T16:10:13.895Z,0
2016-11-26T16:11:23.943Z,0
2016-11-26T16:12:33.970Z,0
2016-11-26T16:13:44.311Z,0
2016-11-26T16:14:54.048Z,0
2016-11-26T16:16:04.076Z,0
2016-11-26T16:17:14.096Z,0
2016-11-26T16:18:24.143Z,0
2016-11-26T16:19:33.851Z,0
2016-11-26T16:20:43.883Z,0
2016-11-26T16:21:53.903Z,0
2016-11-26T16:23:03.644Z,0
2016-11-26T16:24:13.996Z,0
2016-11-26T16:25:24.332Z,0
2016-11-26T16:26:34.679Z,0
2016-11-26T16:27:44.697Z,0
2016-11-26T16:28:55.043Z,0
2016-11-26T16:30:04.475Z,0
2016-11-26T16:31:14.805Z,0
2016-11-26T16:32:25.140Z,0
2016-11-26T16:33:34.882Z,0
2016-11-26T16:34:44.926Z,0
2016-11-26T16:35:54.944Z,0
2016-11-26T16:37:05.294Z,0
2016-11-26T16:38:15.641Z,0
2016-11-26T16:39:25.977Z,0
2016-11-26T16:40:36.002Z,0
2016-11-26T16:41:46.334Z,0
2016-11-26T16:42:56.673Z,0
2016-11-26T16:44:06.705Z,0
2016-11-26T16:45:17.047Z,0
2016-11-26T16:46:27.414Z,0
2016-11-26T16:47:37.455Z,0
2016-11-26T16:48:47.485Z,0
2016-11-26T16:49:59.077Z,0
2016-11-26T16:51:09.896Z,0
2016-11-26T16:52:19.628Z,0
2016-11-26T16:53:29.516Z,0
2016-11-26T16:54:40.020Z,0
2016-11-26T16:55:50.476Z,0
2016-11-26T16:57:00.520Z,0
2016-11-26T16:58:10.752Z,0
2016-11-26T16:59:21.006Z,0
2016-11-26T17:00:31.435Z,0
2016-11-26T17:01:41.933Z,0
2016-11-26T17:02:52.565Z,0
2016-11-26T17:04:02.955Z,0
2016-11-26T17:05:13.033Z,0
2016-11-26T17:06:23.697Z,0
2016-11-26T17:07:34.165Z,0
2016-11-26T17:08:44.218Z,0
2016-11-26T17:09:54.663Z,0
2016-11-26T17:11:04.703Z,0
2016-11-26T17:12:14.733Z,0
2016-11-26T17:13:25.059Z,0
2016-11-26T17:14:35.684Z,0
2016-11-26T17:15:45.758Z,0
2016-11-26T17:16:55.901Z,0
2016-11-26T17:18:06.460Z,0
2016-11-26T17:19:16.571Z,0